sensor_id;sensor_type;location;lat;lon;timestamp;P1;durP1;ratioP1;P2;durP2;ratioP2
15363;SDS011;7781;49.690;6.472;2023-06-26T00:01:37;5.57;;;4.43;;
15363;SDS011;7781;49.690;6.472;2023-06-26T00:04:06;8.93;;;5.13;;
15363;SDS011;7781;49.690;6.472;2023-06-26T00:06:43;6.60;;;4.47;;
15363;SDS011;7781;49.690;6.472;2023-06-26T00:09:11;6.43;;;4.50;;
15363;SDS011;7781;49.690;6.472;2023-06-26T00:11:40;5.80;;;4.00;;
15363;SDS011;7781;49.690;6.472;2023-06-26T00:14:08;5.23;;;4.37;;
15363;SDS011;7781;49.690;6.472;2023-06-26T00:16:38;6.07;;;4.47;;
15363;SDS011;7781;49.690;6.472;2023-06-26T00:19:06;6.03;;;4.97;;
15363;SDS011;7781;49.690;6.472;2023-06-26T00:21:34;5.97;;;4.70;;
15363;SDS011;7781;49.690;6.472;2023-06-26T00:24:05;6.23;;;4.23;;
15363;SDS011;7781;49.690;6.472;2023-06-26T00:26:33;5.33;;;4.27;;
15363;SDS011;7781;49.690;6.472;2023-06-26T00:29:02;5.30;;;4.57;;
15363;SDS011;7781;49.690;6.472;2023-06-26T00:31:30;5.83;;;4.70;;
15363;SDS011;7781;49.690;6.472;2023-06-26T00:34:00;7.20;;;4.33;;
15363;SDS011;7781;49.690;6.472;2023-06-26T00:36:30;6.57;;;4.73;;
15363;SDS011;7781;49.690;6.472;2023-06-26T00:38:59;5.87;;;4.03;;
15363;SDS011;7781;49.690;6.472;2023-06-26T00:41:30;8.37;;;5.83;;
15363;SDS011;7781;49.690;6.472;2023-06-26T00:44:01;5.40;;;4.77;;
15363;SDS011;7781;49.690;6.472;2023-06-26T00:46:31;6.47;;;4.73;;
15363;SDS011;7781;49.690;6.472;2023-06-26T00:49:01;13.10;;;4.57;;
15363;SDS011;7781;49.690;6.472;2023-06-26T00:51:31;8.60;;;5.37;;
15363;SDS011;7781;49.690;6.472;2023-06-26T00:54:00;4.77;;;4.13;;
15363;SDS011;7781;49.690;6.472;2023-06-26T00:56:31;5.97;;;4.10;;
15363;SDS011;7781;49.690;6.472;2023-06-26T00:59:00;9.20;;;5.33;;
15363;SDS011;7781;49.690;6.472;2023-06-26T01:01:29;5.23;;;4.50;;
15363;SDS011;7781;49.690;6.472;2023-06-26T01:03:58;5.50;;;4.53;;
15363;SDS011;7781;49.690;6.472;2023-06-26T01:06:27;6.30;;;4.67;;
15363;SDS011;7781;49.690;6.472;2023-06-26T01:08:58;10.37;;;5.23;;
15363;SDS011;7781;49.690;6.472;2023-06-26T01:11:27;5.97;;;4.67;;
15363;SDS011;7781;49.690;6.472;2023-06-26T01:13:59;7.30;;;5.13;;
15363;SDS011;7781;49.690;6.472;2023-06-26T01:16:29;7.53;;;5.07;;
15363;SDS011;7781;49.690;6.472;2023-06-26T01:18:58;6.23;;;4.30;;
15363;SDS011;7781;49.690;6.472;2023-06-26T01:21:27;6.07;;;4.70;;
15363;SDS011;7781;49.690;6.472;2023-06-26T01:24:01;7.50;;;4.70;;
15363;SDS011;7781;49.690;6.472;2023-06-26T01:26:40;4.87;;;4.10;;
15363;SDS011;7781;49.690;6.472;2023-06-26T01:29:15;7.57;;;4.60;;
15363;SDS011;7781;49.690;6.472;2023-06-26T01:31:47;13.50;;;5.40;;
15363;SDS011;7781;49.690;6.472;2023-06-26T01:34:17;12.03;;;4.67;;
15363;SDS011;7781;49.690;6.472;2023-06-26T01:36:48;5.80;;;4.40;;
15363;SDS011;7781;49.690;6.472;2023-06-26T01:39:18;5.80;;;4.60;;
15363;SDS011;7781;49.690;6.472;2023-06-26T01:41:48;6.63;;;5.07;;
15363;SDS011;7781;49.690;6.472;2023-06-26T01:44:21;6.00;;;4.90;;
15363;SDS011;7781;49.690;6.472;2023-06-26T01:46:59;8.80;;;4.60;;
15363;SDS011;7781;49.690;6.472;2023-06-26T01:49:31;6.20;;;5.03;;
15363;SDS011;7781;49.690;6.472;2023-06-26T01:52:09;7.50;;;4.70;;
15363;SDS011;7781;49.690;6.472;2023-06-26T01:54:49;9.73;;;4.93;;
15363;SDS011;7781;49.690;6.472;2023-06-26T01:57:27;5.80;;;4.30;;
15363;SDS011;7781;49.690;6.472;2023-06-26T01:59:58;14.63;;;5.50;;
15363;SDS011;7781;49.690;6.472;2023-06-26T02:02:40;5.77;;;4.40;;
15363;SDS011;7781;49.690;6.472;2023-06-26T02:05:12;6.23;;;4.83;;
15363;SDS011;7781;49.690;6.472;2023-06-26T02:07:41;7.03;;;4.90;;
15363;SDS011;7781;49.690;6.472;2023-06-26T02:10:10;6.50;;;4.77;;
15363;SDS011;7781;49.690;6.472;2023-06-26T02:12:40;6.97;;;5.33;;
15363;SDS011;7781;49.690;6.472;2023-06-26T02:15:11;6.53;;;5.00;;
15363;SDS011;7781;49.690;6.472;2023-06-26T02:17:40;7.10;;;4.90;;
15363;SDS011;7781;49.690;6.472;2023-06-26T02:20:08;6.80;;;4.93;;
15363;SDS011;7781;49.690;6.472;2023-06-26T02:22:37;6.40;;;5.37;;
15363;SDS011;7781;49.690;6.472;2023-06-26T02:25:08;8.53;;;4.83;;
15363;SDS011;7781;49.690;6.472;2023-06-26T02:27:39;7.30;;;4.73;;
15363;SDS011;7781;49.690;6.472;2023-06-26T02:30:11;7.27;;;4.90;;
15363;SDS011;7781;49.690;6.472;2023-06-26T02:32:40;6.47;;;4.80;;
15363;SDS011;7781;49.690;6.472;2023-06-26T02:35:08;6.63;;;4.97;;
15363;SDS011;7781;49.690;6.472;2023-06-26T02:37:41;5.87;;;4.57;;
15363;SDS011;7781;49.690;6.472;2023-06-26T02:40:12;6.80;;;4.83;;
15363;SDS011;7781;49.690;6.472;2023-06-26T02:42:42;8.30;;;4.97;;
15363;SDS011;7781;49.690;6.472;2023-06-26T02:45:11;5.93;;;4.57;;
15363;SDS011;7781;49.690;6.472;2023-06-26T02:47:40;8.47;;;4.53;;
15363;SDS011;7781;49.690;6.472;2023-06-26T02:50:10;7.10;;;5.10;;
15363;SDS011;7781;49.690;6.472;2023-06-26T02:53:07;6.60;;;5.10;;
15363;SDS011;7781;49.690;6.472;2023-06-26T02:55:39;4.83;;;4.30;;
15363;SDS011;7781;49.690;6.472;2023-06-26T02:58:10;6.70;;;5.27;;
15363;SDS011;7781;49.690;6.472;2023-06-26T03:00:38;7.33;;;4.87;;
15363;SDS011;7781;49.690;6.472;2023-06-26T03:03:13;7.50;;;5.60;;
15363;SDS011;7781;49.690;6.472;2023-06-26T03:05:41;6.93;;;5.20;;
15363;SDS011;7781;49.690;6.472;2023-06-26T03:08:11;7.67;;;4.87;;
15363;SDS011;7781;49.690;6.472;2023-06-26T03:10:39;7.10;;;5.27;;
15363;SDS011;7781;49.690;6.472;2023-06-26T03:13:11;7.90;;;5.47;;
15363;SDS011;7781;49.690;6.472;2023-06-26T03:15:39;8.30;;;5.70;;
15363;SDS011;7781;49.690;6.472;2023-06-26T03:18:08;7.57;;;5.20;;
15363;SDS011;7781;49.690;6.472;2023-06-26T03:20:36;9.10;;;5.10;;
15363;SDS011;7781;49.690;6.472;2023-06-26T03:23:06;6.60;;;4.97;;
15363;SDS011;7781;49.690;6.472;2023-06-26T03:25:34;8.00;;;5.77;;
15363;SDS011;7781;49.690;6.472;2023-06-26T03:28:32;5.80;;;4.90;;
15363;SDS011;7781;49.690;6.472;2023-06-26T03:31:01;7.20;;;5.00;;
15363;SDS011;7781;49.690;6.472;2023-06-26T03:33:30;6.53;;;4.80;;
15363;SDS011;7781;49.690;6.472;2023-06-26T03:35:59;6.00;;;5.40;;
15363;SDS011;7781;49.690;6.472;2023-06-26T03:38:28;6.27;;;5.30;;
15363;SDS011;7781;49.690;6.472;2023-06-26T03:40:58;6.90;;;4.90;;
15363;SDS011;7781;49.690;6.472;2023-06-26T03:43:27;9.90;;;5.13;;
15363;SDS011;7781;49.690;6.472;2023-06-26T03:46:14;8.43;;;5.27;;
15363;SDS011;7781;49.690;6.472;2023-06-26T03:48:43;6.30;;;5.40;;
15363;SDS011;7781;49.690;6.472;2023-06-26T03:51:12;10.27;;;4.97;;
15363;SDS011;7781;49.690;6.472;2023-06-26T03:53:40;6.80;;;5.10;;
15363;SDS011;7781;49.690;6.472;2023-06-26T03:56:09;8.80;;;5.10;;
15363;SDS011;7781;49.690;6.472;2023-06-26T03:58:38;8.07;;;5.23;;
15363;SDS011;7781;49.690;6.472;2023-06-26T04:01:07;9.17;;;4.93;;
15363;SDS011;7781;49.690;6.472;2023-06-26T04:03:37;5.67;;;4.80;;
15363;SDS011;7781;49.690;6.472;2023-06-26T04:06:06;7.60;;;5.53;;
15363;SDS011;7781;49.690;6.472;2023-06-26T04:08:36;6.70;;;5.77;;
15363;SDS011;7781;49.690;6.472;2023-06-26T04:11:05;6.83;;;5.47;;
15363;SDS011;7781;49.690;6.472;2023-06-26T04:13:33;6.67;;;5.90;;
15363;SDS011;7781;49.690;6.472;2023-06-26T04:16:01;6.57;;;5.20;;
15363;SDS011;7781;49.690;6.472;2023-06-26T04:18:33;5.20;;;4.10;;
15363;SDS011;7781;49.690;6.472;2023-06-26T04:21:07;8.90;;;6.27;;
15363;SDS011;7781;49.690;6.472;2023-06-26T04:23:38;7.70;;;6.00;;
15363;SDS011;7781;49.690;6.472;2023-06-26T04:26:07;7.53;;;6.03;;
15363;SDS011;7781;49.690;6.472;2023-06-26T04:28:36;5.97;;;5.03;;
15363;SDS011;7781;49.690;6.472;2023-06-26T04:31:04;8.90;;;5.87;;
15363;SDS011;7781;49.690;6.472;2023-06-26T04:33:33;7.27;;;6.13;;
15363;SDS011;7781;49.690;6.472;2023-06-26T04:36:02;7.50;;;5.70;;
15363;SDS011;7781;49.690;6.472;2023-06-26T04:38:32;9.73;;;5.17;;
15363;SDS011;7781;49.690;6.472;2023-06-26T04:41:02;9.47;;;5.27;;
15363;SDS011;7781;49.690;6.472;2023-06-26T04:43:31;8.40;;;5.83;;
15363;SDS011;7781;49.690;6.472;2023-06-26T04:45:59;8.80;;;6.60;;
15363;SDS011;7781;49.690;6.472;2023-06-26T04:48:28;8.90;;;5.80;;
15363;SDS011;7781;49.690;6.472;2023-06-26T04:50:57;7.00;;;5.50;;
15363;SDS011;7781;49.690;6.472;2023-06-26T04:53:26;9.17;;;5.80;;
15363;SDS011;7781;49.690;6.472;2023-06-26T04:55:57;7.80;;;6.00;;
15363;SDS011;7781;49.690;6.472;2023-06-26T04:58:25;7.93;;;5.60;;
15363;SDS011;7781;49.690;6.472;2023-06-26T05:00:54;9.17;;;5.37;;
15363;SDS011;7781;49.690;6.472;2023-06-26T05:03:23;6.70;;;5.73;;
15363;SDS011;7781;49.690;6.472;2023-06-26T05:05:52;8.93;;;5.40;;
15363;SDS011;7781;49.690;6.472;2023-06-26T05:08:21;10.63;;;5.23;;
15363;SDS011;7781;49.690;6.472;2023-06-26T05:10:53;12.93;;;5.30;;
15363;SDS011;7781;49.690;6.472;2023-06-26T05:13:27;6.20;;;4.67;;
15363;SDS011;7781;49.690;6.472;2023-06-26T05:15:55;6.60;;;5.10;;
15363;SDS011;7781;49.690;6.472;2023-06-26T05:18:24;7.60;;;5.20;;
15363;SDS011;7781;49.690;6.472;2023-06-26T05:20:53;6.30;;;5.50;;
15363;SDS011;7781;49.690;6.472;2023-06-26T05:23:23;6.77;;;5.23;;
15363;SDS011;7781;49.690;6.472;2023-06-26T05:25:53;6.93;;;4.93;;
15363;SDS011;7781;49.690;6.472;2023-06-26T05:28:22;8.40;;;5.30;;
15363;SDS011;7781;49.690;6.472;2023-06-26T05:30:56;6.57;;;4.90;;
15363;SDS011;7781;49.690;6.472;2023-06-26T05:33:27;8.17;;;5.30;;
15363;SDS011;7781;49.690;6.472;2023-06-26T05:35:57;5.40;;;4.53;;
15363;SDS011;7781;49.690;6.472;2023-06-26T05:38:27;18.00;;;5.30;;
15363;SDS011;7781;49.690;6.472;2023-06-26T05:40:56;6.07;;;4.93;;
15363;SDS011;7781;49.690;6.472;2023-06-26T05:43:25;8.17;;;6.03;;
15363;SDS011;7781;49.690;6.472;2023-06-26T05:45:57;8.13;;;5.23;;
15363;SDS011;7781;49.690;6.472;2023-06-26T05:48:25;8.80;;;5.07;;
15363;SDS011;7781;49.690;6.472;2023-06-26T05:50:54;8.70;;;5.30;;
15363;SDS011;7781;49.690;6.472;2023-06-26T05:53:24;7.63;;;4.80;;
15363;SDS011;7781;49.690;6.472;2023-06-26T05:55:53;11.40;;;4.50;;
15363;SDS011;7781;49.690;6.472;2023-06-26T05:58:22;8.40;;;4.57;;
15363;SDS011;7781;49.690;6.472;2023-06-26T06:00:53;8.93;;;3.97;;
15363;SDS011;7781;49.690;6.472;2023-06-26T06:03:25;5.33;;;3.40;;
15363;SDS011;7781;49.690;6.472;2023-06-26T06:05:53;4.73;;;3.67;;
15363;SDS011;7781;49.690;6.472;2023-06-26T06:08:22;8.33;;;3.37;;
15363;SDS011;7781;49.690;6.472;2023-06-26T06:10:50;4.27;;;3.27;;
15363;SDS011;7781;49.690;6.472;2023-06-26T06:13:19;4.43;;;3.23;;
15363;SDS011;7781;49.690;6.472;2023-06-26T06:15:48;4.30;;;2.83;;
15363;SDS011;7781;49.690;6.472;2023-06-26T06:18:17;6.33;;;3.00;;
15363;SDS011;7781;49.690;6.472;2023-06-26T06:20:47;4.33;;;2.50;;
15363;SDS011;7781;49.690;6.472;2023-06-26T06:23:16;4.63;;;3.10;;
15363;SDS011;7781;49.690;6.472;2023-06-26T06:25:45;5.70;;;3.27;;
15363;SDS011;7781;49.690;6.472;2023-06-26T06:28:13;3.93;;;2.90;;
15363;SDS011;7781;49.690;6.472;2023-06-26T06:30:43;3.63;;;2.90;;
15363;SDS011;7781;49.690;6.472;2023-06-26T06:33:14;3.80;;;3.20;;
15363;SDS011;7781;49.690;6.472;2023-06-26T06:35:43;4.63;;;3.10;;
15363;SDS011;7781;49.690;6.472;2023-06-26T06:38:13;2.97;;;2.23;;
15363;SDS011;7781;49.690;6.472;2023-06-26T06:40:41;2.77;;;2.40;;
15363;SDS011;7781;49.690;6.472;2023-06-26T06:43:10;3.23;;;2.20;;
15363;SDS011;7781;49.690;6.472;2023-06-26T06:45:38;2.90;;;2.03;;
15363;SDS011;7781;49.690;6.472;2023-06-26T06:48:07;4.27;;;2.80;;
15363;SDS011;7781;49.690;6.472;2023-06-26T06:50:35;5.27;;;2.03;;
15363;SDS011;7781;49.690;6.472;2023-06-26T06:53:05;3.20;;;2.03;;
15363;SDS011;7781;49.690;6.472;2023-06-26T06:55:36;5.37;;;2.67;;
15363;SDS011;7781;49.690;6.472;2023-06-26T06:58:04;2.80;;;2.30;;
15363;SDS011;7781;49.690;6.472;2023-06-26T07:00:34;2.93;;;2.63;;
15363;SDS011;7781;49.690;6.472;2023-06-26T07:03:03;6.83;;;2.60;;
15363;SDS011;7781;49.690;6.472;2023-06-26T07:05:32;4.53;;;2.53;;
15363;SDS011;7781;49.690;6.472;2023-06-26T07:08:01;2.80;;;1.97;;
15363;SDS011;7781;49.690;6.472;2023-06-26T07:10:30;4.43;;;2.57;;
15363;SDS011;7781;49.690;6.472;2023-06-26T07:13:00;2.30;;;2.10;;
15363;SDS011;7781;49.690;6.472;2023-06-26T07:15:29;3.10;;;2.40;;
15363;SDS011;7781;49.690;6.472;2023-06-26T07:17:59;3.43;;;2.33;;
15363;SDS011;7781;49.690;6.472;2023-06-26T07:20:27;2.97;;;2.17;;
15363;SDS011;7781;49.690;6.472;2023-06-26T07:22:56;2.60;;;2.23;;
15363;SDS011;7781;49.690;6.472;2023-06-26T07:25:24;3.47;;;2.33;;
15363;SDS011;7781;49.690;6.472;2023-06-26T07:27:53;4.23;;;2.47;;
15363;SDS011;7781;49.690;6.472;2023-06-26T07:30:23;2.93;;;2.17;;
15363;SDS011;7781;49.690;6.472;2023-06-26T07:32:51;3.10;;;2.17;;
15363;SDS011;7781;49.690;6.472;2023-06-26T07:35:20;2.03;;;1.83;;
15363;SDS011;7781;49.690;6.472;2023-06-26T07:37:48;4.40;;;2.10;;
15363;SDS011;7781;49.690;6.472;2023-06-26T07:40:17;3.30;;;2.10;;
15363;SDS011;7781;49.690;6.472;2023-06-26T07:42:46;3.20;;;1.93;;
15363;SDS011;7781;49.690;6.472;2023-06-26T07:45:16;3.67;;;1.70;;
15363;SDS011;7781;49.690;6.472;2023-06-26T07:47:47;5.50;;;1.77;;
15363;SDS011;7781;49.690;6.472;2023-06-26T07:50:16;1.77;;;1.50;;
15363;SDS011;7781;49.690;6.472;2023-06-26T07:52:48;2.87;;;1.83;;
15363;SDS011;7781;49.690;6.472;2023-06-26T07:55:16;3.30;;;2.00;;
15363;SDS011;7781;49.690;6.472;2023-06-26T07:57:45;5.57;;;2.10;;
15363;SDS011;7781;49.690;6.472;2023-06-26T08:00:13;5.20;;;2.17;;
15363;SDS011;7781;49.690;6.472;2023-06-26T08:02:42;4.03;;;2.30;;
15363;SDS011;7781;49.690;6.472;2023-06-26T08:05:12;4.80;;;2.20;;
15363;SDS011;7781;49.690;6.472;2023-06-26T08:07:41;4.53;;;2.10;;
15363;SDS011;7781;49.690;6.472;2023-06-26T08:10:09;4.80;;;2.43;;
15363;SDS011;7781;49.690;6.472;2023-06-26T08:12:38;2.67;;;2.00;;
15363;SDS011;7781;49.690;6.472;2023-06-26T08:15:09;4.20;;;2.40;;
15363;SDS011;7781;49.690;6.472;2023-06-26T08:17:38;6.87;;;2.40;;
15363;SDS011;7781;49.690;6.472;2023-06-26T08:20:07;4.70;;;1.97;;
15363;SDS011;7781;49.690;6.472;2023-06-26T08:22:42;3.03;;;2.20;;
15363;SDS011;7781;49.690;6.472;2023-06-26T08:25:11;3.70;;;2.50;;
15363;SDS011;7781;49.690;6.472;2023-06-26T08:27:39;4.30;;;2.43;;
15363;SDS011;7781;49.690;6.472;2023-06-26T08:30:08;6.00;;;3.23;;
15363;SDS011;7781;49.690;6.472;2023-06-26T08:32:37;4.70;;;2.03;;
15363;SDS011;7781;49.690;6.472;2023-06-26T08:35:07;3.77;;;2.00;;
15363;SDS011;7781;49.690;6.472;2023-06-26T08:37:37;7.00;;;2.57;;
15363;SDS011;7781;49.690;6.472;2023-06-26T08:40:08;5.03;;;2.30;;
15363;SDS011;7781;49.690;6.472;2023-06-26T08:42:37;4.77;;;2.13;;
15363;SDS011;7781;49.690;6.472;2023-06-26T08:45:06;5.00;;;2.37;;
15363;SDS011;7781;49.690;6.472;2023-06-26T08:47:34;5.37;;;2.50;;
15363;SDS011;7781;49.690;6.472;2023-06-26T08:50:07;6.00;;;2.63;;
15363;SDS011;7781;49.690;6.472;2023-06-26T08:52:37;4.00;;;2.83;;
15363;SDS011;7781;49.690;6.472;2023-06-26T08:55:12;4.83;;;2.43;;
15363;SDS011;7781;49.690;6.472;2023-06-26T08:57:43;5.37;;;2.70;;
15363;SDS011;7781;49.690;6.472;2023-06-26T09:00:14;7.47;;;2.07;;
15363;SDS011;7781;49.690;6.472;2023-06-26T09:02:44;3.80;;;2.50;;
15363;SDS011;7781;49.690;6.472;2023-06-26T09:05:14;8.37;;;2.90;;
15363;SDS011;7781;49.690;6.472;2023-06-26T09:07:43;8.60;;;2.60;;
15363;SDS011;7781;49.690;6.472;2023-06-26T09:10:13;7.13;;;2.93;;
15363;SDS011;7781;49.690;6.472;2023-06-26T09:12:45;5.77;;;2.77;;
15363;SDS011;7781;49.690;6.472;2023-06-26T09:15:15;5.63;;;2.47;;
15363;SDS011;7781;49.690;6.472;2023-06-26T09:17:47;5.73;;;2.80;;
15363;SDS011;7781;49.690;6.472;2023-06-26T09:20:16;2.70;;;2.23;;
15363;SDS011;7781;49.690;6.472;2023-06-26T09:22:47;9.17;;;3.33;;
15363;SDS011;7781;49.690;6.472;2023-06-26T09:25:18;5.33;;;2.27;;
15363;SDS011;7781;49.690;6.472;2023-06-26T09:27:48;4.03;;;2.30;;
15363;SDS011;7781;49.690;6.472;2023-06-26T09:30:17;4.60;;;2.30;;
15363;SDS011;7781;49.690;6.472;2023-06-26T09:32:46;7.50;;;2.43;;
15363;SDS011;7781;49.690;6.472;2023-06-26T09:35:17;4.20;;;2.50;;
15363;SDS011;7781;49.690;6.472;2023-06-26T09:37:49;7.43;;;2.53;;
15363;SDS011;7781;49.690;6.472;2023-06-26T09:40:21;8.37;;;2.40;;
15363;SDS011;7781;49.690;6.472;2023-06-26T09:42:50;5.40;;;2.47;;
15363;SDS011;7781;49.690;6.472;2023-06-26T09:45:18;6.93;;;2.43;;
15363;SDS011;7781;49.690;6.472;2023-06-26T09:47:48;6.40;;;2.40;;
15363;SDS011;7781;49.690;6.472;2023-06-26T09:50:21;3.37;;;2.50;;
15363;SDS011;7781;49.690;6.472;2023-06-26T09:52:52;6.80;;;2.60;;
15363;SDS011;7781;49.690;6.472;2023-06-26T09:55:22;5.07;;;1.67;;
15363;SDS011;7781;49.690;6.472;2023-06-26T09:57:54;5.50;;;2.23;;
15363;SDS011;7781;49.690;6.472;2023-06-26T10:00:24;6.20;;;2.50;;
15363;SDS011;7781;49.690;6.472;2023-06-26T10:02:52;5.00;;;2.23;;
15363;SDS011;7781;49.690;6.472;2023-06-26T10:05:21;4.00;;;2.00;;
15363;SDS011;7781;49.690;6.472;2023-06-26T10:07:52;2.70;;;1.93;;
15363;SDS011;7781;49.690;6.472;2023-06-26T10:10:26;4.37;;;1.90;;
15363;SDS011;7781;49.690;6.472;2023-06-26T10:12:59;5.13;;;2.53;;
15363;SDS011;7781;49.690;6.472;2023-06-26T10:15:31;5.03;;;2.10;;
15363;SDS011;7781;49.690;6.472;2023-06-26T10:18:01;3.70;;;2.10;;
15363;SDS011;7781;49.690;6.472;2023-06-26T10:20:30;2.80;;;1.80;;
15363;SDS011;7781;49.690;6.472;2023-06-26T10:23:00;6.60;;;2.37;;
15363;SDS011;7781;49.690;6.472;2023-06-26T10:25:34;4.60;;;2.00;;
15363;SDS011;7781;49.690;6.472;2023-06-26T10:28:05;2.67;;;2.07;;
15363;SDS011;7781;49.690;6.472;2023-06-26T10:30:35;1.90;;;1.67;;
15363;SDS011;7781;49.690;6.472;2023-06-26T10:33:05;5.67;;;1.93;;
15363;SDS011;7781;49.690;6.472;2023-06-26T10:35:40;3.23;;;1.57;;
15363;SDS011;7781;49.690;6.472;2023-06-26T10:38:10;4.07;;;1.70;;
15363;SDS011;7781;49.690;6.472;2023-06-26T10:40:41;7.00;;;1.90;;
15363;SDS011;7781;49.690;6.472;2023-06-26T10:43:12;1.33;;;1.23;;
15363;SDS011;7781;49.690;6.472;2023-06-26T10:45:44;3.20;;;1.57;;
15363;SDS011;7781;49.690;6.472;2023-06-26T10:48:18;3.13;;;1.87;;
15363;SDS011;7781;49.690;6.472;2023-06-26T10:50:48;6.47;;;2.10;;
15363;SDS011;7781;49.690;6.472;2023-06-26T10:53:22;3.40;;;1.80;;
15363;SDS011;7781;49.690;6.472;2023-06-26T10:55:58;5.60;;;1.80;;
15363;SDS011;7781;49.690;6.472;2023-06-26T10:58:40;3.33;;;1.50;;
15363;SDS011;7781;49.690;6.472;2023-06-26T11:01:20;6.53;;;1.50;;
15363;SDS011;7781;49.690;6.472;2023-06-26T11:04:06;5.23;;;1.80;;
15363;SDS011;7781;49.690;6.472;2023-06-26T11:06:45;1.87;;;1.40;;
15363;SDS011;7781;49.690;6.472;2023-06-26T11:09:17;1.77;;;1.43;;
15363;SDS011;7781;49.690;6.472;2023-06-26T11:11:59;3.50;;;1.53;;
15363;SDS011;7781;49.690;6.472;2023-06-26T11:14:34;3.20;;;2.07;;
15363;SDS011;7781;49.690;6.472;2023-06-26T11:17:03;3.63;;;1.50;;
15363;SDS011;7781;49.690;6.472;2023-06-26T11:19:32;2.90;;;1.40;;
15363;SDS011;7781;49.690;6.472;2023-06-26T11:22:02;4.17;;;1.50;;
15363;SDS011;7781;49.690;6.472;2023-06-26T11:24:33;4.20;;;1.30;;
15363;SDS011;7781;49.690;6.472;2023-06-26T11:27:04;4.60;;;1.30;;
15363;SDS011;7781;49.690;6.472;2023-06-26T11:29:32;1.50;;;1.10;;
15363;SDS011;7781;49.690;6.472;2023-06-26T11:32:02;6.20;;;1.33;;
15363;SDS011;7781;49.690;6.472;2023-06-26T11:34:35;2.70;;;1.20;;
15363;SDS011;7781;49.690;6.472;2023-06-26T11:37:04;3.50;;;1.67;;
15363;SDS011;7781;49.690;6.472;2023-06-26T11:39:34;1.30;;;1.10;;
15363;SDS011;7781;49.690;6.472;2023-06-26T11:42:06;3.27;;;1.20;;
15363;SDS011;7781;49.690;6.472;2023-06-26T11:44:39;3.10;;;1.73;;
15363;SDS011;7781;49.690;6.472;2023-06-26T11:47:14;1.83;;;1.20;;
15363;SDS011;7781;49.690;6.472;2023-06-26T11:49:43;4.30;;;1.43;;
15363;SDS011;7781;49.690;6.472;2023-06-26T11:52:14;2.63;;;1.03;;
15363;SDS011;7781;49.690;6.472;2023-06-26T11:54:43;3.10;;;1.50;;
15363;SDS011;7781;49.690;6.472;2023-06-26T11:57:15;10.30;;;1.30;;
15363;SDS011;7781;49.690;6.472;2023-06-26T11:59:45;1.83;;;1.07;;
15363;SDS011;7781;49.690;6.472;2023-06-26T12:02:18;1.77;;;1.43;;
15363;SDS011;7781;49.690;6.472;2023-06-26T12:04:49;5.13;;;1.30;;
15363;SDS011;7781;49.690;6.472;2023-06-26T12:07:17;5.10;;;1.60;;
15363;SDS011;7781;49.690;6.472;2023-06-26T12:09:47;2.07;;;1.23;;
15363;SDS011;7781;49.690;6.472;2023-06-26T12:12:19;2.47;;;1.30;;
15363;SDS011;7781;49.690;6.472;2023-06-26T12:14:47;2.47;;;1.40;;
15363;SDS011;7781;49.690;6.472;2023-06-26T12:17:16;4.17;;;1.33;;
15363;SDS011;7781;49.690;6.472;2023-06-26T12:19:46;4.80;;;1.40;;
15363;SDS011;7781;49.690;6.472;2023-06-26T12:22:16;11.10;;;1.80;;
15363;SDS011;7781;49.690;6.472;2023-06-26T12:24:45;5.17;;;1.67;;
15363;SDS011;7781;49.690;6.472;2023-06-26T12:27:15;1.93;;;1.23;;
15363;SDS011;7781;49.690;6.472;2023-06-26T12:29:49;2.33;;;1.70;;
15363;SDS011;7781;49.690;6.472;2023-06-26T12:32:19;2.13;;;1.53;;
15363;SDS011;7781;49.690;6.472;2023-06-26T12:34:51;2.90;;;1.27;;
15363;SDS011;7781;49.690;6.472;2023-06-26T12:37:19;3.40;;;1.33;;
15363;SDS011;7781;49.690;6.472;2023-06-26T12:39:49;2.43;;;1.43;;
15363;SDS011;7781;49.690;6.472;2023-06-26T12:42:18;4.50;;;1.57;;
15363;SDS011;7781;49.690;6.472;2023-06-26T12:44:49;5.60;;;1.40;;
15363;SDS011;7781;49.690;6.472;2023-06-26T12:47:22;3.57;;;1.50;;
15363;SDS011;7781;49.690;6.472;2023-06-26T12:49:54;7.10;;;1.50;;
15363;SDS011;7781;49.690;6.472;2023-06-26T12:52:24;3.10;;;1.70;;
15363;SDS011;7781;49.690;6.472;2023-06-26T12:54:53;2.10;;;1.40;;
15363;SDS011;7781;49.690;6.472;2023-06-26T12:57:23;2.33;;;1.43;;
15363;SDS011;7781;49.690;6.472;2023-06-26T12:59:53;4.30;;;1.30;;
15363;SDS011;7781;49.690;6.472;2023-06-26T13:02:22;1.87;;;1.57;;
15363;SDS011;7781;49.690;6.472;2023-06-26T13:04:51;2.77;;;1.60;;
15363;SDS011;7781;49.690;6.472;2023-06-26T13:07:20;2.47;;;1.30;;
15363;SDS011;7781;49.690;6.472;2023-06-26T13:09:51;5.07;;;1.47;;
15363;SDS011;7781;49.690;6.472;2023-06-26T13:12:20;4.10;;;1.40;;
15363;SDS011;7781;49.690;6.472;2023-06-26T13:14:49;3.70;;;1.40;;
15363;SDS011;7781;49.690;6.472;2023-06-26T13:17:19;3.10;;;1.50;;
15363;SDS011;7781;49.690;6.472;2023-06-26T13:19:48;4.03;;;1.63;;
15363;SDS011;7781;49.690;6.472;2023-06-26T13:22:16;1.90;;;1.60;;
15363;SDS011;7781;49.690;6.472;2023-06-26T13:24:44;4.67;;;1.63;;
15363;SDS011;7781;49.690;6.472;2023-06-26T13:27:16;7.43;;;1.47;;
15363;SDS011;7781;49.690;6.472;2023-06-26T13:29:45;2.47;;;1.50;;
15363;SDS011;7781;49.690;6.472;2023-06-26T13:32:13;3.63;;;1.83;;
15363;SDS011;7781;49.690;6.472;2023-06-26T13:34:44;2.37;;;1.60;;
15363;SDS011;7781;49.690;6.472;2023-06-26T13:37:14;3.20;;;1.63;;
15363;SDS011;7781;49.690;6.472;2023-06-26T13:39:46;2.17;;;1.57;;
15363;SDS011;7781;49.690;6.472;2023-06-26T13:42:17;1.70;;;1.30;;
15363;SDS011;7781;49.690;6.472;2023-06-26T13:44:46;5.07;;;1.93;;
15363;SDS011;7781;49.690;6.472;2023-06-26T13:47:30;2.57;;;1.70;;
15363;SDS011;7781;49.690;6.472;2023-06-26T13:50:02;3.00;;;1.33;;
15363;SDS011;7781;49.690;6.472;2023-06-26T13:52:33;3.00;;;1.67;;
15363;SDS011;7781;49.690;6.472;2023-06-26T13:55:01;2.60;;;2.07;;
15363;SDS011;7781;49.690;6.472;2023-06-26T13:57:31;4.77;;;1.80;;
15363;SDS011;7781;49.690;6.472;2023-06-26T14:00:00;4.47;;;1.90;;
15363;SDS011;7781;49.690;6.472;2023-06-26T14:02:37;2.57;;;1.70;;
15363;SDS011;7781;49.690;6.472;2023-06-26T14:05:08;2.60;;;1.57;;
15363;SDS011;7781;49.690;6.472;2023-06-26T14:07:37;5.77;;;1.83;;
15363;SDS011;7781;49.690;6.472;2023-06-26T14:10:06;3.37;;;1.70;;
15363;SDS011;7781;49.690;6.472;2023-06-26T14:12:35;4.67;;;1.77;;
15363;SDS011;7781;49.690;6.472;2023-06-26T14:15:04;4.93;;;1.70;;
15363;SDS011;7781;49.690;6.472;2023-06-26T14:17:33;6.40;;;1.80;;
15363;SDS011;7781;49.690;6.472;2023-06-26T14:20:03;2.80;;;1.47;;
15363;SDS011;7781;49.690;6.472;2023-06-26T14:22:41;2.63;;;1.40;;
15363;SDS011;7781;49.690;6.472;2023-06-26T14:25:10;2.47;;;1.50;;
15363;SDS011;7781;49.690;6.472;2023-06-26T14:27:39;3.63;;;1.30;;
15363;SDS011;7781;49.690;6.472;2023-06-26T14:30:08;6.50;;;1.30;;
15363;SDS011;7781;49.690;6.472;2023-06-26T14:32:37;2.30;;;1.73;;
15363;SDS011;7781;49.690;6.472;2023-06-26T14:35:06;2.60;;;1.57;;
15363;SDS011;7781;49.690;6.472;2023-06-26T14:37:35;6.77;;;1.70;;
15363;SDS011;7781;49.690;6.472;2023-06-26T14:40:09;2.37;;;1.30;;
15363;SDS011;7781;49.690;6.472;2023-06-26T14:42:38;1.57;;;1.17;;
15363;SDS011;7781;49.690;6.472;2023-06-26T14:45:07;3.43;;;1.50;;
15363;SDS011;7781;49.690;6.472;2023-06-26T14:47:38;2.60;;;1.43;;
15363;SDS011;7781;49.690;6.472;2023-06-26T14:50:07;5.80;;;2.23;;
15363;SDS011;7781;49.690;6.472;2023-06-26T14:52:38;4.13;;;1.70;;
15363;SDS011;7781;49.690;6.472;2023-06-26T14:55:09;4.70;;;1.67;;
15363;SDS011;7781;49.690;6.472;2023-06-26T14:57:38;3.60;;;2.10;;
15363;SDS011;7781;49.690;6.472;2023-06-26T15:00:08;4.67;;;1.73;;
15363;SDS011;7781;49.690;6.472;2023-06-26T15:02:38;2.53;;;1.37;;
15363;SDS011;7781;49.690;6.472;2023-06-26T15:05:06;3.57;;;1.70;;
15363;SDS011;7781;49.690;6.472;2023-06-26T15:07:36;3.50;;;1.70;;
15363;SDS011;7781;49.690;6.472;2023-06-26T15:10:05;3.53;;;1.53;;
15363;SDS011;7781;49.690;6.472;2023-06-26T15:12:37;4.87;;;1.60;;
15363;SDS011;7781;49.690;6.472;2023-06-26T15:15:06;2.60;;;1.30;;
15363;SDS011;7781;49.690;6.472;2023-06-26T15:17:36;4.20;;;1.63;;
15363;SDS011;7781;49.690;6.472;2023-06-26T15:20:05;4.30;;;2.13;;